Time;durP1;ratioP1;P1;durP2;ratioP2;P2;SDS_P1;SDS_P2;PMS_P1;PMS_P2;Temp;Humidity;BMP_temperature;BMP_pressure;BME280_temperature;BME280_humidity;BME280_pressure;Samples;Min_cycle;Max_cycle;Signal;HPM_P1;HPM_P2
2021/11/13 00:01:10;;;;;;;44.97;19.27;;;3.00;99.90;;;;;;5073689;28;20111;-67
2021/11/13 00:03:36;;;;;;;41.85;19.90;;;3.10;99.90;;;;;;5056489;28;20128;-68
2021/11/13 00:06:02;;;;;;;46.58;20.30;;;3.10;99.90;;;;;;5056548;28;20527;-66
2021/11/13 00:08:27;;;;;;;50.78;19.38;;;3.00;99.90;;;;;;5055822;28;20481;-66
2021/11/13 00:10:53;;;;;;;61.13;19.35;;;3.10;99.90;;;;;;5074484;28;20107;-66
2021/11/13 00:13:21;;;;;;;50.08;21.30;;;3.10;99.90;;;;;;5074023;28;20331;-66
2021/11/13 00:15:48;;;;;;;52.22;18.95;;;3.10;99.90;;;;;;5055927;28;20128;-66
2021/11/13 00:18:15;;;;;;;51.55;19.40;;;3.20;99.90;;;;;;5073751;28;20028;-66
2021/11/13 00:20:41;;;;;;;50.17;19.73;;;3.20;99.90;;;;;;5073749;28;20394;-66
2021/11/13 00:23:07;;;;;;;48.13;18.40;;;3.20;99.90;;;;;;5055964;28;20032;-66
2021/11/13 00:25:33;;;;;;;50.10;19.98;;;3.20;99.90;;;;;;5073307;28;20056;-66
2021/11/13 00:27:58;;;;;;;45.95;18.60;;;3.00;99.90;;;;;;5073850;28;20575;-65
2021/11/13 00:30:24;;;;;;;50.80;20.08;;;3.00;99.90;;;;;;5073469;28;20027;-66
2021/11/13 00:32:50;;;;;;;55.60;19.48;;;3.00;99.90;;;;;;5074352;28;20067;-66
2021/11/13 00:35:16;;;;;;;52.13;19.13;;;2.90;99.90;;;;;;5073428;28;20060;-66
2021/11/13 00:37:42;;;;;;;44.30;19.25;;;3.00;99.90;;;;;;5056024;28;20296;-67
2021/11/13 00:40:10;;;;;;;44.58;18.83;;;3.00;99.90;;;;;;5073891;28;20021;-66
2021/11/13 00:42:36;;;;;;;49.13;19.95;;;3.10;99.90;;;;;;5073660;28;20553;-66
2021/11/13 00:45:03;;;;;;;36.03;17.83;;;3.10;99.90;;;;;;5055386;28;20054;-66
2021/11/13 00:47:28;;;;;;;50.30;19.15;;;3.20;99.90;;;;;;5073326;28;20054;-66
2021/11/13 00:49:54;;;;;;;47.80;19.20;;;3.10;99.90;;;;;;5073723;28;20028;-67
2021/11/13 00:52:20;;;;;;;48.92;19.25;;;3.10;99.90;;;;;;5073256;28;20123;-65
2021/11/13 00:54:45;;;;;;;41.67;19.20;;;3.00;99.90;;;;;;5073808;28;20086;-67
2021/11/13 00:57:12;;;;;;;47.70;18.55;;;2.90;99.90;;;;;;5055488;28;20029;-75
2021/11/13 00:59:37;;;;;;;34.80;16.52;;;3.00;99.90;;;;;;5073323;28;20422;-66
2021/11/13 01:02:07;;;;;;;43.58;17.63;;;3.00;99.90;;;;;;5073285;28;20484;-66
2021/11/13 01:04:33;;;;;;;37.83;16.27;;;3.00;99.90;;;;;;5036796;28;20481;-66
2021/11/13 01:06:58;;;;;;;40.05;18.27;;;3.00;99.90;;;;;;5053339;28;20029;-67
2021/11/13 01:09:24;;;;;;;47.03;17.85;;;3.00;99.90;;;;;;5034788;28;20410;-66
2021/11/13 01:11:50;;;;;;;39.67;17.83;;;3.00;99.90;;;;;;5053409;28;20480;-66
2021/11/13 01:14:16;;;;;;;34.00;15.73;;;2.90;99.90;;;;;;5052304;28;20025;-66
2021/11/13 01:16:42;;;;;;;39.90;17.60;;;2.80;99.90;;;;;;5053206;28;20049;-67
2021/11/13 01:19:08;;;;;;;44.60;18.45;;;2.80;99.90;;;;;;5053233;28;20091;-67
2021/11/13 01:21:34;;;;;;;45.35;17.98;;;2.70;99.90;;;;;;5052110;28;20097;-65
2021/11/13 01:23:59;;;;;;;39.63;18.00;;;2.80;99.90;;;;;;5038227;28;20116;-66
2021/11/13 01:26:25;;;;;;;44.60;18.10;;;2.90;99.90;;;;;;5053118;28;20100;-66
2021/11/13 01:28:51;;;;;;;42.15;17.67;;;2.70;99.90;;;;;;5035059;28;20029;-66
2021/11/13 01:31:17;;;;;;;35.33;16.48;;;2.80;99.90;;;;;;5034608;28;20082;-66
2021/11/13 01:33:44;;;;;;;46.58;17.90;;;2.80;99.90;;;;;;5054034;28;20021;-67
2021/11/13 01:36:11;;;;;;;41.13;18.27;;;2.90;99.90;;;;;;5053380;28;20029;-66
2021/11/13 01:38:37;;;;;;;45.80;18.25;;;2.80;99.90;;;;;;5052244;28;20021;-66
2021/11/13 01:41:05;;;;;;;43.15;17.15;;;2.90;99.90;;;;;;5052540;28;20167;-66
2021/11/13 01:43:39;;;;;;;36.03;16.65;;;3.00;99.90;;;;;;5033910;28;20037;-65
2021/11/13 01:46:06;;;;;;;48.88;17.67;;;2.80;99.90;;;;;;5034946;28;20146;-66
2021/11/13 01:48:33;;;;;;;34.75;17.00;;;2.70;99.90;;;;;;5034120;28;20545;-66
2021/11/13 01:50:59;;;;;;;47.47;20.10;;;2.70;99.90;;;;;;5052423;28;20048;-66
2021/11/13 01:53:28;;;;;;;41.13;17.77;;;2.80;99.90;;;;;;5033816;28;20031;-66
2021/11/13 01:55:56;;;;;;;45.15;19.08;;;2.80;99.90;;;;;;5051904;28;20470;-66
2021/11/13 01:58:23;;;;;;;43.28;18.65;;;2.90;99.90;;;;;;5052034;28;20021;-66
2021/11/13 02:00:53;;;;;;;53.45;20.25;;;2.90;99.90;;;;;;5052514;28;20446;-66
2021/11/13 02:03:20;;;;;;;45.90;20.98;;;2.80;99.90;;;;;;5051746;28;20233;-65
2021/11/13 02:05:50;;;;;;;43.17;18.45;;;2.90;99.90;;;;;;5034105;28;20090;-66
2021/11/13 02:08:17;;;;;;;40.70;19.13;;;2.90;99.90;;;;;;5051755;28;20020;-76
2021/11/13 02:10:45;;;;;;;51.70;22.75;;;2.90;99.90;;;;;;5052176;28;20103;-65
2021/11/13 02:13:10;;;;;;;48.47;21.90;;;2.90;99.90;;;;;;5052445;28;20087;-66
2021/11/13 02:15:36;;;;;;;50.22;21.77;;;3.00;99.90;;;;;;5051100;28;20341;-66
2021/11/13 02:18:03;;;;;;;51.85;22.55;;;3.10;99.90;;;;;;5051475;28;20075;-67
2021/11/13 02:20:32;;;;;;;46.67;19.58;;;2.90;99.90;;;;;;5051395;28;20059;-65
2021/11/13 02:23:01;;;;;;;54.78;22.17;;;2.70;99.90;;;;;;5051942;28;20033;-66
2021/11/13 02:25:30;;;;;;;47.45;21.15;;;2.70;99.90;;;;;;5051649;28;20036;-66
2021/11/13 02:27:56;;;;;;;44.88;20.60;;;2.80;99.90;;;;;;5034088;28;20079;-65
2021/11/13 02:30:23;;;;;;;48.55;21.48;;;2.90;99.90;;;;;;5051063;28;20109;-66
2021/11/13 02:32:49;;;;;;;46.83;21.95;;;3.10;99.90;;;;;;5052180;28;20147;-67
2021/11/13 02:35:16;;;;;;;52.60;22.83;;;3.00;99.90;;;;;;5033953;28;20021;-66
2021/11/13 02:37:45;;;;;;;53.45;22.25;;;2.70;99.90;;;;;;5051563;28;20032;-65
2021/11/13 02:40:12;;;;;;;63.58;23.33;;;2.80;99.90;;;;;;5033826;28;20116;-66
2021/11/13 02:42:39;;;;;;;45.13;21.20;;;2.90;99.90;;;;;;5033154;28;20428;-66
2021/11/13 02:45:07;;;;;;;47.92;22.05;;;3.00;99.90;;;;;;5051713;28;20037;-66
2021/11/13 02:47:34;;;;;;;71.63;21.83;;;2.90;99.90;;;;;;5032971;28;20048;-66
2021/11/13 02:50:01;;;;;;;61.65;21.40;;;2.90;99.90;;;;;;5051525;28;20428;-66
2021/11/13 02:52:27;;;;;;;58.95;24.83;;;2.90;99.90;;;;;;5050413;28;20040;-66
2021/11/13 02:54:52;;;;;;;49.58;21.45;;;2.90;99.90;;;;;;5051705;28;20029;-65
2021/11/13 02:57:19;;;;;;;63.95;23.48;;;2.80;99.90;;;;;;5033715;28;20512;-65
2021/11/13 02:59:49;;;;;;;60.13;23.40;;;2.90;99.90;;;;;;5051512;28;20033;-66
2021/11/13 03:02:15;;;;;;;49.92;21.70;;;3.00;99.90;;;;;;5051110;28;20029;-66
2021/11/13 03:04:41;;;;;;;57.25;23.67;;;3.10;99.90;;;;;;5050395;28;20029;-66
2021/11/13 03:07:07;;;;;;;56.40;23.30;;;3.00;99.90;;;;;;5033326;28;20119;-66
2021/11/13 03:09:34;;;;;;;56.03;23.27;;;3.00;99.90;;;;;;5032620;28;20113;-65
2021/11/13 03:12:01;;;;;;;54.83;21.60;;;2.90;99.90;;;;;;5033354;28;20098;-65
2021/11/13 03:14:27;;;;;;;58.05;21.35;;;2.90;99.90;;;;;;5050962;28;20018;-66
2021/11/13 03:16:52;;;;;;;61.65;22.83;;;3.00;99.90;;;;;;5051111;28;20136;-66
2021/11/13 03:19:18;;;;;;;57.22;23.17;;;2.90;99.90;;;;;;5033331;28;20677;-65
2021/11/13 03:21:44;;;;;;;53.08;23.40;;;3.00;99.90;;;;;;5050570;28;20130;-66
2021/11/13 03:24:10;;;;;;;62.42;23.38;;;3.10;99.90;;;;;;5051203;28;20117;-67
2021/11/13 03:26:38;;;;;;;67.30;23.25;;;3.10;99.90;;;;;;5032622;28;20057;-66
2021/11/13 03:29:28;;;;;;;65.53;24.85;;;3.10;99.90;;;;;;5051026;28;20359;-65
2021/11/13 03:31:55;;;;;;;57.85;21.33;;;3.10;99.90;;;;;;5050960;28;20032;-65
2021/11/13 03:34:21;;;;;;;65.45;23.33;;;3.20;99.90;;;;;;5050841;28;20455;-76
2021/11/13 03:36:46;;;;;;;55.70;23.08;;;3.00;99.90;;;;;;5050688;28;20033;-66
2021/11/13 03:39:12;;;;;;;58.22;22.77;;;3.10;99.90;;;;;;5032814;28;20032;-66
2021/11/13 03:41:38;;;;;;;55.55;23.10;;;3.10;99.90;;;;;;5049874;28;20120;-65
2021/11/13 03:44:04;;;;;;;57.53;23.55;;;3.10;99.90;;;;;;5050832;28;20036;-65
2021/11/13 03:46:30;;;;;;;55.40;21.92;;;3.10;99.90;;;;;;5050513;28;20029;-66
2021/11/13 03:48:55;;;;;;;52.17;21.15;;;3.20;99.90;;;;;;5050790;28;20106;-65
2021/11/13 03:51:22;;;;;;;54.65;23.08;;;3.10;99.90;;;;;;5050775;28;20036;-65
2021/11/13 03:53:48;;;;;;;54.85;22.50;;;3.20;99.90;;;;;;5050646;28;20082;-66
2021/11/13 03:56:14;;;;;;;60.33;24.45;;;3.20;99.90;;;;;;5050171;28;20439;-66
2021/11/13 03:58:40;;;;;;;54.60;22.52;;;3.20;99.90;;;;;;5049564;28;20043;-66
2021/11/13 04:01:06;;;;;;;51.50;23.88;;;3.30;99.90;;;;;;5032531;28;20360;-67
2021/11/13 04:03:32;;;;;;;58.75;24.77;;;3.40;99.90;;;;;;5049958;28;20035;-66
2021/11/13 04:05:58;;;;;;;54.30;21.27;;;3.30;99.90;;;;;;5050285;28;20033;-66
2021/11/13 04:08:23;;;;;;;52.45;24.52;;;3.30;99.90;;;;;;5049909;28;20048;-70
2021/11/13 04:10:49;;;;;;;60.30;24.83;;;3.40;99.90;;;;;;5032204;28;20554;-66
2021/11/13 04:13:15;;;;;;;59.55;22.48;;;3.30;99.90;;;;;;5050396;28;20036;-66
2021/11/13 04:15:41;;;;;;;64.13;24.55;;;3.30;99.90;;;;;;5050161;28;20035;-66
2021/11/13 04:18:07;;;;;;;75.53;27.25;;;3.30;99.90;;;;;;5070433;28;20037;-66
2021/11/13 04:20:33;;;;;;;60.67;24.50;;;3.30;99.90;;;;;;5054841;28;20020;-66
2021/11/13 04:22:59;;;;;;;69.45;23.77;;;3.30;99.90;;;;;;5073589;28;20032;-65
2021/11/13 04:25:24;;;;;;;65.88;23.77;;;3.30;99.90;;;;;;5055273;28;20454;-69
2021/11/13 04:27:51;;;;;;;54.55;23.95;;;3.30;99.90;;;;;;5073731;28;20027;-67
2021/11/13 04:30:17;;;;;;;75.88;25.65;;;3.30;99.90;;;;;;5073490;28;20432;-66
2021/11/13 04:32:46;;;;;;;72.05;24.70;;;3.30;99.90;;;;;;5073294;28;20065;-66
2021/11/13 04:35:19;;;;;;;71.68;25.63;;;3.20;99.90;;;;;;5073796;28;20100;-65
2021/11/13 04:37:52;;;;;;;54.55;23.17;;;3.30;99.90;;;;;;5073179;28;20025;-66
2021/11/13 04:40:19;;;;;;;81.13;26.75;;;3.40;99.90;;;;;;5073812;28;20033;-66
2021/11/13 04:42:45;;;;;;;85.95;24.45;;;3.40;99.90;;;;;;5054891;28;20043;-66
2021/11/13 04:45:11;;;;;;;75.45;27.13;;;3.40;99.90;;;;;;5073588;28;20024;-66
2021/11/13 04:47:37;;;;;;;62.28;21.48;;;3.40;99.90;;;;;;5073076;28;20024;-67
2021/11/13 04:50:05;;;;;;;59.85;22.38;;;3.30;99.90;;;;;;5073496;28;20423;-67
2021/11/13 04:52:30;;;;;;;87.32;23.55;;;3.40;99.90;;;;;;5072721;28;20032;-67
2021/11/13 04:54:56;;;;;;;76.72;24.20;;;3.40;99.90;;;;;;5073185;28;20027;-67
2021/11/13 04:57:22;;;;;;;76.60;22.15;;;3.30;99.90;;;;;;5073523;28;20027;-66
2021/11/13 04:59:48;;;;;;;69.55;21.80;;;3.20;99.90;;;;;;5054893;28;20029;-67
2021/11/13 05:02:13;;;;;;;76.82;23.27;;;3.20;99.90;;;;;;5072895;28;20096;-66
2021/11/13 05:04:39;;;;;;;83.07;25.08;;;3.20;99.90;;;;;;5054573;28;20028;-66
2021/11/13 05:07:05;;;;;;;48.78;20.40;;;3.20;99.90;;;;;;5072820;28;20060;-67
2021/11/13 05:09:30;;;;;;;54.25;21.25;;;3.30;99.90;;;;;;5054555;28;20025;-66
2021/11/13 05:11:56;;;;;;;65.25;20.90;;;3.30;99.90;;;;;;5055272;28;20541;-67
2021/11/13 05:14:22;;;;;;;79.60;20.45;;;3.30;99.90;;;;;;5073193;28;20422;-67
2021/11/13 05:16:47;;;;;;;71.18;20.85;;;3.30;99.90;;;;;;5053669;28;20486;-65
2021/11/13 05:19:13;;;;;;;50.72;20.52;;;3.30;99.90;;;;;;5072977;28;20036;-66
2021/11/13 05:21:39;;;;;;;67.68;22.38;;;3.40;99.90;;;;;;5054280;28;20035;-66
2021/11/13 05:24:05;;;;;;;58.50;20.85;;;3.30;99.90;;;;;;5072860;28;20040;-66
2021/11/13 05:26:31;;;;;;;56.05;21.52;;;3.40;99.90;;;;;;5072167;28;20028;-67
2021/11/13 05:28:56;;;;;;;70.60;21.23;;;3.40;99.90;;;;;;5072707;28;20112;-67
2021/11/13 05:31:22;;;;;;;77.65;22.75;;;3.40;99.90;;;;;;5071841;28;20029;-68
2021/11/13 05:33:47;;;;;;;53.42;21.92;;;3.20;99.90;;;;;;5071929;28;20228;-66
2021/11/13 05:36:13;;;;;;;55.20;20.52;;;3.40;99.90;;;;;;5072730;28;20438;-67
2021/11/13 05:38:39;;;;;;;74.18;22.63;;;3.40;99.90;;;;;;5062446;28;20024;-66
2021/11/13 05:41:04;;;;;;;76.10;22.52;;;3.40;99.90;;;;;;5092943;28;20446;-66
2021/11/13 05:43:30;;;;;;;109.15;26.38;;;3.40;99.90;;;;;;5092119;28;20459;-67
2021/11/13 05:45:56;;;;;;;100.88;24.40;;;3.40;99.90;;;;;;5092567;28;20496;-66
2021/11/13 05:48:22;;;;;;;81.97;23.02;;;3.40;99.90;;;;;;5092242;28;20028;-67
2021/11/13 05:50:48;;;;;;;60.97;22.83;;;3.40;99.90;;;;;;5091769;28;20035;-66
2021/11/13 05:53:14;;;;;;;77.43;22.98;;;3.50;99.90;;;;;;5092423;28;20346;-65
2021/11/13 05:55:40;;;;;;;102.35;24.75;;;3.50;99.90;;;;;;5091745;28;20025;-66
2021/11/13 05:58:06;;;;;;;92.78;22.55;;;3.40;99.90;;;;;;5092462;28;20081;-66
2021/11/13 06:00:34;;;;;;;67.03;23.58;;;3.30;99.90;;;;;;5091737;28;20125;-66
2021/11/13 06:03:00;;;;;;;49.83;21.33;;;3.40;99.90;;;;;;5073769;28;20042;-65
2021/11/13 06:05:26;;;;;;;85.60;22.75;;;3.40;99.90;;;;;;5073908;28;20024;-65
2021/11/13 06:07:52;;;;;;;62.60;23.33;;;3.40;99.90;;;;;;5091553;28;20027;-67
2021/11/13 06:10:18;;;;;;;87.60;24.60;;;3.50;99.90;;;;;;5073809;28;20031;-65
2021/11/13 06:12:44;;;;;;;98.47;22.95;;;3.50;99.90;;;;;;5091356;28;20024;-65
2021/11/13 06:15:11;;;;;;;55.03;20.67;;;3.40;99.90;;;;;;5091795;28;20028;-66
2021/11/13 06:17:37;;;;;;;75.88;22.15;;;3.40;99.90;;;;;;5091169;28;20048;-66
2021/11/13 06:20:04;;;;;;;62.38;22.52;;;3.30;99.90;;;;;;5091612;28;20107;-66
2021/11/13 06:22:31;;;;;;;81.30;22.52;;;3.20;99.90;;;;;;5091488;28;20039;-65
2021/11/13 06:24:57;;;;;;;52.78;22.17;;;3.40;99.90;;;;;;5092000;28;20381;-65
2021/11/13 06:27:23;;;;;;;64.65;22.50;;;3.30;99.90;;;;;;5091904;28;20056;-65
2021/11/13 06:29:48;;;;;;;62.97;23.60;;;3.20;99.90;;;;;;5091292;28;20180;-64
2021/11/13 06:32:14;;;;;;;65.32;21.90;;;3.40;99.90;;;;;;5092052;28;20382;-66
2021/11/13 06:34:40;;;;;;;67.85;23.33;;;3.40;99.90;;;;;;5072843;28;20380;-66
2021/11/13 06:37:07;;;;;;;64.88;21.48;;;3.40;99.90;;;;;;5090226;28;20128;-65
2021/11/13 06:39:34;;;;;;;53.30;22.10;;;3.40;99.90;;;;;;5091239;28;20077;-67
2021/11/13 06:42:00;;;;;;;56.75;22.88;;;3.40;99.90;;;;;;5091605;28;20024;-67
2021/11/13 06:44:26;;;;;;;47.17;21.52;;;3.40;99.90;;;;;;5073569;28;20028;-67
2021/11/13 06:46:52;;;;;;;47.08;20.08;;;3.50;99.90;;;;;;5091153;28;20585;-66
2021/11/13 06:49:18;;;;;;;51.25;20.85;;;3.60;99.90;;;;;;5073411;28;20126;-66
2021/11/13 06:51:45;;;;;;;46.13;20.08;;;3.60;99.90;;;;;;5072764;28;20108;-66
2021/11/13 06:54:12;;;;;;;57.00;22.13;;;3.40;99.90;;;;;;5073010;28;20109;-66
2021/11/13 06:56:38;;;;;;;41.90;19.80;;;3.40;99.90;;;;;;5090890;28;20027;-66
2021/11/13 06:59:04;;;;;;;47.83;21.30;;;3.60;99.90;;;;;;5073209;28;20024;-67
2021/11/13 07:01:29;;;;;;;42.42;20.38;;;3.60;99.90;;;;;;5089874;28;20036;-65
2021/11/13 07:03:55;;;;;;;45.33;20.00;;;3.60;99.90;;;;;;5072432;28;20028;-65
2021/11/13 07:06:21;;;;;;;49.15;21.65;;;3.70;99.90;;;;;;5091425;28;20028;-67
2021/11/13 07:08:46;;;;;;;48.67;20.02;;;3.70;99.90;;;;;;5087835;28;20044;-66
2021/11/13 07:11:12;;;;;;;38.42;18.95;;;3.80;99.90;;;;;;5071311;28;20035;-66
2021/11/13 07:13:38;;;;;;;45.38;20.67;;;3.70;99.90;;;;;;5070326;28;20027;-67
2021/11/13 07:16:04;;;;;;;47.67;20.80;;;3.70;99.90;;;;;;5070530;28;20083;-65
2021/11/13 07:18:29;;;;;;;45.97;21.02;;;3.70;99.90;;;;;;5053503;28;20450;-66
2021/11/13 07:20:58;;;;;;;44.88;20.63;;;3.60;99.90;;;;;;5070288;28;20115;-66
2021/11/13 07:23:23;;;;;;;41.83;21.35;;;3.60;99.90;;;;;;5052643;28;20029;-66
2021/11/13 07:25:50;;;;;;;42.97;18.73;;;3.60;99.90;;;;;;5070412;28;20048;-66
2021/11/13 07:28:20;;;;;;;43.38;19.73;;;3.60;99.90;;;;;;5070918;28;20029;-67
2021/11/13 07:30:48;;;;;;;38.33;19.40;;;3.70;99.90;;;;;;5070458;28;20381;-67
2021/11/13 07:33:14;;;;;;;41.63;20.85;;;3.70;99.90;;;;;;5052981;28;20025;-66
2021/11/13 07:35:42;;;;;;;40.70;19.38;;;3.70;99.90;;;;;;5070651;28;20377;-67
2021/11/13 07:38:08;;;;;;;37.90;20.58;;;3.80;99.90;;;;;;5070960;28;20450;-68
2021/11/13 07:40:34;;;;;;;37.38;19.80;;;3.80;99.90;;;;;;5087059;28;20043;-67
2021/11/13 07:43:00;;;;;;;40.55;19.05;;;3.80;99.90;;;;;;5090135;28;20028;-67
2021/11/13 07:45:30;;;;;;;45.20;20.20;;;3.80;99.90;;;;;;5072877;28;20028;-68
2021/11/13 07:47:56;;;;;;;41.88;21.42;;;3.90;99.90;;;;;;5072068;28;20310;-68
2021/11/13 07:50:24;;;;;;;42.67;20.35;;;3.70;99.90;;;;;;5088008;28;20031;-66
2021/11/13 07:52:50;;;;;;;46.28;20.67;;;3.70;99.90;;;;;;5090379;28;20032;-66
2021/11/13 07:55:17;;;;;;;42.00;20.65;;;3.60;99.90;;;;;;5093679;28;20099;-67
2021/11/13 07:57:44;;;;;;;39.97;19.45;;;3.60;99.90;;;;;;5075683;28;20028;-66
2021/11/13 08:00:14;;;;;;;40.28;21.15;;;3.70;99.90;;;;;;5094209;28;20104;-66
2021/11/13 08:02:40;;;;;;;40.80;20.08;;;3.80;99.90;;;;;;5093387;28;20504;-67
2021/11/13 08:05:07;;;;;;;45.03;21.17;;;3.70;99.90;;;;;;5075964;28;20055;-66
2021/11/13 08:07:33;;;;;;;38.22;19.15;;;3.70;99.90;;;;;;5075986;28;20049;-65
2021/11/13 08:09:58;;;;;;;40.38;19.85;;;3.80;99.90;;;;;;5093463;28;20156;-67
2021/11/13 08:12:24;;;;;;;46.50;20.50;;;3.90;99.90;;;;;;5094202;28;20351;-66
2021/11/13 08:14:50;;;;;;;37.47;20.00;;;4.00;99.90;;;;;;5093305;28;20031;-66
2021/11/13 08:17:15;;;;;;;44.85;21.73;;;3.90;99.90;;;;;;5094439;28;20356;-66
2021/11/13 08:19:41;;;;;;;38.03;20.52;;;4.00;99.90;;;;;;5093706;28;20032;-66
2021/11/13 08:22:07;;;;;;;43.65;20.30;;;3.90;99.90;;;;;;5094395;28;20085;-66
2021/11/13 08:24:35;;;;;;;38.75;20.30;;;4.00;99.90;;;;;;5086717;28;20035;-66
2021/11/13 08:27:02;;;;;;;51.15;23.95;;;3.90;99.90;;;;;;5073363;28;20373;-67
2021/11/13 08:29:28;;;;;;;42.83;21.08;;;3.90;99.90;;;;;;5060901;28;20028;-68
2021/11/13 08:31:53;;;;;;;48.17;23.75;;;4.00;99.90;;;;;;5092818;28;20076;-68
2021/11/13 08:34:19;;;;;;;46.58;21.50;;;4.10;99.90;;;;;;5066395;28;20611;-62
2021/11/13 08:36:45;;;;;;;48.70;21.58;;;4.70;99.90;;;;;;5093784;28;20120;-66
2021/11/13 08:39:11;;;;;;;37.20;18.92;;;4.90;99.90;;;;;;5075717;28;20035;-67
2021/11/13 08:41:37;;;;;;;40.47;20.90;;;4.60;99.90;;;;;;5054805;28;20038;-65
2021/11/13 08:44:04;;;;;;;39.03;19.38;;;4.50;99.90;;;;;;5072819;28;20032;-65
2021/11/13 08:46:32;;;;;;;42.85;20.33;;;4.50;99.90;;;;;;5055347;28;20474;-67
2021/11/13 08:48:58;;;;;;;37.78;19.52;;;4.40;99.90;;;;;;5071318;28;20037;-67
2021/11/13 08:51:24;;;;;;;34.25;18.95;;;4.30;99.90;;;;;;5073716;28;20048;-67
2021/11/13 08:53:54;;;;;;;37.00;19.40;;;4.40;99.90;;;;;;5054582;28;20033;-67
2021/11/13 08:56:25;;;;;;;38.00;18.80;;;4.20;99.90;;;;;;5071826;28;20090;-66
2021/11/13 08:58:55;;;;;;;35.70;20.03;;;4.30;99.90;;;;;;5072782;28;20021;-65
2021/11/13 09:01:23;;;;;;;37.38;19.73;;;4.10;99.90;;;;;;5072867;28;20423;-66
2021/11/13 09:03:50;;;;;;;38.25;20.25;;;4.00;99.90;;;;;;5054511;28;20059;-67
2021/11/13 09:06:21;;;;;;;38.40;18.33;;;4.10;99.90;;;;;;5073078;28;20058;-66
2021/11/13 09:08:50;;;;;;;32.58;17.75;;;4.00;99.90;;;;;;5054682;28;20070;-66
2021/11/13 09:11:22;;;;;;;43.42;20.55;;;3.90;99.90;;;;;;5081986;28;20097;-65
2021/11/13 09:13:49;;;;;;;34.30;17.67;;;3.80;99.90;;;;;;5054203;28;20020;-67
2021/11/13 09:16:16;;;;;;;35.38;18.48;;;3.90;99.90;;;;;;5054547;28;20040;-66
2021/11/13 09:18:44;;;;;;;38.92;18.98;;;4.00;99.90;;;;;;5054157;28;20044;-70
2021/11/13 09:21:11;;;;;;;32.47;18.83;;;4.00;99.90;;;;;;5072834;28;20078;-69
2021/11/13 09:23:38;;;;;;;36.35;17.95;;;4.00;99.90;;;;;;5072188;28;20033;-68
2021/11/13 09:26:06;;;;;;;38.30;19.30;;;4.20;99.90;;;;;;5054043;28;20028;-66
2021/11/13 09:28:32;;;;;;;31.83;17.10;;;4.20;99.90;;;;;;5083270;28;20030;-66
2021/11/13 09:30:59;;;;;;;38.17;19.58;;;4.10;99.90;;;;;;5092015;28;20026;-67
2021/11/13 09:33:25;;;;;;;41.92;19.25;;;4.20;99.90;;;;;;5081583;28;20107;-67
2021/11/13 09:35:54;;;;;;;38.83;20.27;;;4.10;99.90;;;;;;5070871;28;20024;-67
2021/11/13 09:38:25;;;;;;;31.13;17.30;;;4.00;99.90;;;;;;5053672;28;20036;-66
2021/11/13 09:40:53;;;;;;;32.63;18.05;;;4.20;99.90;;;;;;5037096;28;20736;-69
2021/11/13 09:43:20;;;;;;;42.33;17.63;;;4.20;99.90;;;;;;5074754;28;20509;-65
2021/11/13 09:45:46;;;;;;;39.20;19.75;;;4.10;99.90;;;;;;5055819;28;20074;-65
2021/11/13 09:48:12;;;;;;;31.38;17.50;;;4.20;99.90;;;;;;5059110;28;20025;-67
2021/11/13 09:50:40;;;;;;;34.55;18.40;;;4.20;99.90;;;;;;5066081;28;20097;-66
2021/11/13 09:53:07;;;;;;;33.17;18.33;;;4.10;99.90;;;;;;5068760;28;20360;-67
2021/11/13 09:55:34;;;;;;;30.08;16.77;;;4.20;99.90;;;;;;5085155;28;20072;-69
2021/11/13 09:58:00;;;;;;;31.48;16.58;;;4.20;99.90;;;;;;5090542;28;20484;-68
2021/11/13 10:00:29;;;;;;;35.67;18.55;;;4.30;99.90;;;;;;5070218;28;20143;-69
2021/11/13 10:02:56;;;;;;;30.90;17.15;;;4.50;99.90;;;;;;5072234;28;20036;-67
2021/11/13 10:05:22;;;;;;;28.65;17.77;;;4.50;99.90;;;;;;5075699;28;20033;-67
2021/11/13 10:07:48;;;;;;;34.72;18.38;;;4.40;99.90;;;;;;5080191;28;20074;-67
2021/11/13 10:10:33;;;;;;;35.90;18.02;;;4.40;99.90;;;;;;5068658;28;20060;-66
2021/11/13 10:13:00;;;;;;;30.42;17.25;;;4.50;99.90;;;;;;5070007;28;20036;-65
2021/11/13 10:15:28;;;;;;;31.27;17.02;;;4.60;99.90;;;;;;5059911;28;20081;-66
2021/11/13 10:18:16;;;;;;;33.30;17.50;;;4.50;99.90;;;;;;5078094;28;20135;-68
2021/11/13 10:20:52;;;;;;;30.80;17.60;;;4.60;99.90;;;;;;5068535;28;20071;-66
2021/11/13 10:23:27;;;;;;;31.90;18.60;;;4.70;99.90;;;;;;5080041;28;20047;-68
2021/11/13 10:25:59;;;;;;;33.50;17.83;;;4.60;99.90;;;;;;5062413;28;20881;-65
2021/11/13 10:28:25;;;;;;;30.55;17.48;;;4.70;99.90;;;;;;5063714;28;20024;-67
2021/11/13 10:31:06;;;;;;;29.52;17.25;;;4.70;99.90;;;;;;5077248;28;20066;-69
2021/11/13 10:33:32;;;;;;;32.30;16.00;;;4.80;99.90;;;;;;5055949;28;20024;-66
2021/11/13 10:35:58;;;;;;;32.08;17.75;;;4.80;99.90;;;;;;5073641;28;20033;-66
2021/11/13 10:38:25;;;;;;;32.22;17.38;;;4.70;99.90;;;;;;5081503;28;20028;-67
2021/11/13 10:40:54;;;;;;;30.48;18.27;;;4.70;99.90;;;;;;5076600;28;20043;-70
2021/11/13 10:43:29;;;;;;;30.98;18.02;;;4.80;99.90;;;;;;5074828;28;20119;-65
2021/11/13 10:46:03;;;;;;;34.55;18.83;;;5.70;99.90;;;;;;5086404;28;20024;-66
2021/11/13 10:48:30;;;;;;;31.85;18.60;;;5.20;99.90;;;;;;5066141;28;20024;-65
2021/11/13 10:51:17;;;;;;;34.28;18.42;;;5.10;99.90;;;;;;5085727;28;20057;-66
2021/11/13 10:53:44;;;;;;;30.20;19.38;;;5.10;99.90;;;;;;5091043;28;20028;-67
2021/11/13 10:56:14;;;;;;;27.52;17.08;;;4.90;99.90;;;;;;5078401;28;20216;-66
2021/11/13 10:59:04;;;;;;;32.90;18.80;;;4.90;99.90;;;;;;5052838;28;20040;-67
2021/11/13 11:01:35;;;;;;;32.47;17.52;;;5.00;99.90;;;;;;5068836;28;20036;-66
2021/11/13 11:04:12;;;;;;;29.73;17.58;;;4.90;99.90;;;;;;5069001;28;20037;-66
2021/11/13 11:06:41;;;;;;;34.15;18.25;;;5.00;99.90;;;;;;5070486;28;20098;-66
2021/11/13 11:09:46;;;;;;;29.33;17.40;;;5.00;99.90;;;;;;5051831;28;20081;-69
2021/11/13 11:12:13;;;;;;;31.45;18.13;;;5.00;99.90;;;;;;5078240;28;20048;-66
2021/11/13 11:14:42;;;;;;;27.75;18.13;;;5.00;99.90;;;;;;5079064;28;20421;-67
2021/11/13 11:17:14;;;;;;;35.47;19.10;;;5.00;99.90;;;;;;5076472;28;20072;-66
2021/11/13 11:19:42;;;;;;;30.50;17.30;;;5.00;99.90;;;;;;5076114;28;20033;-67
2021/11/13 11:22:16;;;;;;;30.20;16.80;;;5.00;99.90;;;;;;5075914;28;20106;-65
2021/11/13 11:24:51;;;;;;;36.17;20.02;;;5.00;99.90;;;;;;5077190;28;20396;-67
2021/11/13 11:27:30;;;;;;;33.45;18.33;;;5.20;99.90;;;;;;5076276;28;20050;-66
2021/11/13 11:29:55;;;;;;;27.42;16.45;;;5.20;99.90;;;;;;5074501;28;20028;-68
2021/11/13 11:32:48;;;;;;;32.83;19.70;;;5.20;99.90;;;;;;5094885;28;20318;-67
2021/11/13 11:35:39;;;;;;;31.60;17.88;;;5.20;99.90;;;;;;5076634;28;20100;-66
2021/11/13 11:38:12;;;;;;;31.15;18.05;;;5.30;99.90;;;;;;5080651;28;20086;-73
2021/11/13 11:40:48;;;;;;;28.25;17.60;;;5.50;99.90;;;;;;5074525;28;20027;-66
2021/11/13 11:43:15;;;;;;;30.65;18.60;;;5.40;99.90;;;;;;5074345;28;20028;-64
2021/11/13 11:45:43;;;;;;;32.13;18.48;;;5.40;99.90;;;;;;5074400;28;20024;-68
2021/11/13 11:48:17;;;;;;;33.05;18.13;;;5.50;99.90;;;;;;5055836;28;20051;-59
2021/11/13 11:50:46;;;;;;;31.60;18.23;;;5.60;99.90;;;;;;5056156;28;20021;-67
2021/11/13 11:53:13;;;;;;;31.30;18.40;;;6.30;99.90;;;;;;5074419;28;20116;-67
2021/11/13 11:55:42;;;;;;;26.38;16.58;;;6.10;99.90;;;;;;5074371;28;20095;-66
2021/11/13 11:58:13;;;;;;;33.00;18.88;;;6.00;99.90;;;;;;5074421;28;20177;-64
2021/11/13 12:00:40;;;;;;;29.25;18.42;;;6.90;99.90;;;;;;5071794;28;20066;-66
2021/11/13 12:03:06;;;;;;;29.00;18.38;;;6.70;99.90;;;;;;5080191;28;20103;-66
2021/11/13 12:05:34;;;;;;;28.52;18.05;;;6.50;99.90;;;;;;5067331;28;20024;-67
2021/11/13 12:08:17;;;;;;;29.73;18.23;;;6.40;99.90;;;;;;5079365;28;20024;-72
2021/11/13 12:10:44;;;;;;;26.75;16.92;;;6.40;99.90;;;;;;5070420;28;20024;-68
2021/11/13 12:13:12;;;;;;;26.08;17.77;;;6.30;99.90;;;;;;5092927;28;20036;-66
2021/11/13 12:15:48;;;;;;;27.73;17.20;;;6.30;99.90;;;;;;5075635;28;20111;-68
2021/11/13 12:18:34;;;;;;;34.13;18.17;;;6.30;99.90;;;;;;5075271;28;20194;-66
2021/11/13 12:21:03;;;;;;;29.75;17.60;;;6.20;99.90;;;;;;5093187;28;20065;-67
2021/11/13 12:23:39;;;;;;;30.33;17.75;;;6.20;99.90;;;;;;5075657;28;20028;-67
2021/11/13 12:26:12;;;;;;;28.67;18.02;;;6.20;99.90;;;;;;5074659;28;20024;-66
2021/11/13 12:28:47;;;;;;;25.10;18.48;;;6.10;99.90;;;;;;5093569;28;20020;-67
2021/11/13 12:31:20;;;;;;;32.42;18.77;;;6.10;99.90;;;;;;5093948;28;20054;-68
2021/11/13 12:34:08;;;;;;;29.65;18.35;;;6.10;99.90;;;;;;5092431;28;20027;-66
2021/11/13 12:36:38;;;;;;;33.08;19.80;;;6.10;99.90;;;;;;5093879;28;20031;-67
2021/11/13 12:39:12;;;;;;;31.58;19.60;;;6.10;99.90;;;;;;5092594;28;20031;-66